Time;durP1;ratioP1;P1;durP2;ratioP2;P2;SDS_P1;SDS_P2;PMS_P1;PMS_P2;Temp;Humidity;BMP_temperature;BMP_pressure;BME280_temperature;BME280_humidity;BME280_pressure;Samples;Min_cycle;Max_cycle;Signal;HPM_P1;HPM_P2
2022/01/22 00:01:11;;;;;;;1.47;0.87;;;;;;;0.07;100.00;97554.03;5029617;28;105306;-59
2022/01/22 00:03:39;;;;;;;0.97;0.90;;;;;;;0.10;100.00;97547.66;5032434;28;105964;-59
2022/01/22 00:06:06;;;;;;;1.10;1.00;;;;;;;0.14;100.00;97546.38;5029309;28;106413;-59
2022/01/22 00:08:33;;;;;;;2.37;1.10;;;;;;;0.13;100.00;97539.50;5029106;28;105002;-59
2022/01/22 00:11:34;;;;;;;1.10;0.90;;;;;;;0.15;100.00;97548.00;5029402;28;101840;-59
2022/01/22 00:16:46;;;;;;;1.63;1.07;;;;;;;0.20;100.00;97517.81;5028645;28;106696;-59
2022/01/22 00:19:19;;;;;;;0.97;0.80;;;;;;;0.21;100.00;97514.19;5029244;28;101918;-59
2022/01/22 00:21:46;;;;;;;1.30;1.10;;;;;;;0.23;100.00;97527.13;5029038;28;105240;-59
2022/01/22 00:24:13;;;;;;;6.43;1.20;;;;;;;0.25;100.00;97514.69;5028902;28;105485;-59
2022/01/22 00:26:43;;;;;;;1.73;0.93;;;;;;;0.28;100.00;97519.63;5032749;28;102000;-59
2022/01/22 00:29:49;;;;;;;1.80;0.90;;;;;;;0.28;100.00;97511.78;5028954;28;105297;-59
2022/01/22 00:32:16;;;;;;;1.07;0.87;;;;;;;0.29;100.00;97511.59;5028836;28;101861;-59
2022/01/22 00:34:43;;;;;;;1.33;0.93;;;;;;;0.29;100.00;97503.75;5029385;28;104825;-58
2022/01/22 00:37:11;;;;;;;1.07;0.73;;;;;;;0.31;100.00;97499.19;5027751;28;104974;-59
2022/01/22 00:39:38;;;;;;;2.73;0.83;;;;;;;0.33;100.00;97501.66;5029455;28;101878;-59
2022/01/22 00:42:12;;;;;;;2.50;1.07;;;;;;;0.35;100.00;97489.22;5028572;28;105216;-58
2022/01/22 00:44:40;;;;;;;0.80;0.80;;;;;;;0.36;100.00;97485.63;5027804;28;105597;-59
2022/01/22 00:47:09;;;;;;;1.00;0.97;;;;;;;0.36;100.00;97480.38;5029327;28;101952;-59
2022/01/22 00:49:52;;;;;;;1.97;0.80;;;;;;;0.38;100.00;97483.66;5031791;28;105118;-59
2022/01/22 00:52:20;;;;;;;0.80;0.80;;;;;;;0.41;100.00;97478.94;5028535;28;101920;-59
2022/01/22 00:54:46;;;;;;;0.80;0.77;;;;;;;0.42;100.00;97477.13;5029107;28;105609;-57
2022/01/22 00:57:15;;;;;;;0.80;0.80;;;;;;;0.44;100.00;97480.41;5028152;28;105436;-58
2022/01/22 00:59:42;;;;;;;1.10;0.90;;;;;;;0.43;100.00;97476.97;5029083;28;101903;-58
2022/01/22 01:02:09;;;;;;;1.07;0.70;;;;;;;0.48;100.00;97479.09;5028503;28;105749;-59
2022/01/22 01:04:37;;;;;;;1.43;0.90;;;;;;;0.51;100.00;97478.78;5028508;28;103762;-58
2022/01/22 01:07:05;;;;;;;1.63;0.90;;;;;;;0.52;100.00;97468.16;5028568;28;101979;-59
2022/01/22 01:09:38;;;;;;;0.83;0.70;;;;;;;0.53;100.00;97466.34;5029949;28;102254;-59
2022/01/22 01:12:49;;;;;;;0.80;0.80;;;;;;;0.55;100.00;97470.44;5031093;28;101817;-58
2022/01/22 01:15:36;;;;;;;1.43;1.10;;;;;;;0.52;100.00;97476.00;5028570;28;105609;-59
2022/01/22 01:32:24;;;;;;;2.20;1.43;;;;;;;0.53;100.00;97471.59;5028474;28;105394;-59
2022/01/22 01:34:52;;;;;;;3.20;1.30;;;;;;;0.56;100.00;97468.66;5031076;28;105170;-59
2022/01/22 01:37:29;;;;;;;1.93;1.13;;;;;;;0.56;100.00;97466.03;5028406;28;104886;-59
2022/01/22 01:40:00;;;;;;;0.97;0.90;;;;;;;0.58;100.00;97449.19;5011106;28;106084;-59
2022/01/22 01:43:08;;;;;;;1.80;1.10;;;;;;;0.55;100.00;97448.72;5028150;28;101972;-58
2022/01/22 01:45:35;;;;;;;1.33;0.90;;;;;;;0.56;100.00;97442.50;5027926;28;103355;-59
2022/01/22 01:48:12;;;;;;;2.20;1.03;;;;;;;0.57;100.00;97446.72;5030150;27;102607;-58
2022/01/22 01:50:41;;;;;;;0.97;0.90;;;;;;;0.57;100.00;97451.97;5031652;28;101845;-59
2022/01/22 01:53:13;;;;;;;1.63;0.80;;;;;;;0.56;100.00;97445.91;5031660;28;105188;-58
2022/01/22 01:56:00;;;;;;;1.20;0.97;;;;;;;0.57;100.00;97452.81;5031016;28;105875;-58
2022/01/22 01:58:41;;;;;;;1.03;1.00;;;;;;;0.58;100.00;97453.59;5034849;27;102026;-59
2022/01/22 02:01:08;;;;;;;1.27;0.97;;;;;;;0.62;100.00;97447.88;5030763;28;105560;-58
2022/01/22 02:03:40;;;;;;;1.33;0.77;;;;;;;0.70;100.00;97452.28;5031481;28;101977;-58
2022/01/22 02:06:16;;;;;;;1.17;0.60;;;;;;;0.76;100.00;97446.41;5031588;28;104700;-58
2022/01/22 02:08:55;;;;;;;1.80;0.80;;;;;;;0.88;100.00;97435.44;5030732;28;105178;-58
2022/01/22 02:11:44;;;;;;;1.07;0.80;;;;;;;0.94;100.00;97439.22;5031190;28;101867;-59
2022/01/22 02:25:55;;;;;;;1.20;0.80;;;;;;;1.01;100.00;97408.75;5031250;28;101875;-59
2022/01/22 02:28:31;;;;;;;0.60;0.60;;;;;;;0.99;100.00;97405.50;5030931;28;105225;-59
2022/01/22 02:31:07;;;;;;;1.33;0.80;;;;;;;1.01;100.00;97406.97;5030656;28;105083;-58
2022/01/22 02:33:59;;;;;;;0.90;0.90;;;;;;;1.00;100.00;97400.06;5031241;28;101820;-59
2022/01/22 02:36:32;;;;;;;0.73;0.73;;;;;;;1.00;100.00;97413.16;5015258;28;103777;-58
2022/01/22 02:39:14;;;;;;;1.03;0.60;;;;;;;1.02;100.00;97405.13;5030384;28;105046;-58
2022/01/22 02:41:51;;;;;;;0.93;0.83;;;;;;;0.99;100.00;97416.75;5031140;28;101961;-58
2022/01/22 02:44:32;;;;;;;0.83;0.60;;;;;;;1.02;100.00;97413.00;5030025;28;105692;-58
2022/01/22 02:47:00;;;;;;;0.70;0.60;;;;;;;1.09;100.00;97414.00;5034123;28;105033;-58
2022/01/22 02:49:40;;;;;;;0.93;0.60;;;;;;;1.07;100.00;97414.16;5030685;28;105196;-59
2022/01/22 02:52:12;;;;;;;1.47;0.90;;;;;;;1.08;100.00;97418.41;5031995;27;102995;-59
2022/01/22 02:54:46;;;;;;;0.93;0.60;;;;;;;1.12;100.00;97417.09;5022811;28;101892;-59
2022/01/22 02:57:13;;;;;;;1.70;0.90;;;;;;;1.11;100.00;97425.91;5030657;28;105741;-59
2022/01/22 02:59:44;;;;;;;1.30;0.80;;;;;;;1.19;100.00;97432.94;5030012;27;105024;-58
2022/01/22 03:02:13;;;;;;;0.60;0.60;;;;;;;1.20;100.00;97431.97;5030350;28;101907;-59
2022/01/22 03:04:40;;;;;;;0.80;0.80;;;;;;;1.21;100.00;97415.25;5030508;28;105186;-59
2022/01/22 03:07:07;;;;;;;0.63;0.60;;;;;;;1.21;100.00;97421.31;5029787;28;104937;-59
2022/01/22 03:09:40;;;;;;;0.63;0.63;;;;;;;1.23;100.00;97423.75;5034125;28;101952;-58
2022/01/22 03:12:32;;;;;;;1.70;0.70;;;;;;;1.23;100.00;97429.00;5029558;28;105153;-59
2022/01/22 03:15:33;;;;;;;0.70;0.70;;;;;;;1.18;100.00;97426.06;5030167;28;101913;-58
2022/01/22 03:18:20;;;;;;;0.73;0.70;;;;;;;1.14;100.00;97430.00;5030193;28;105115;-58
2022/01/22 03:21:04;;;;;;;0.50;0.50;;;;;;;1.14;100.00;97438.69;5029966;28;104918;-58
2022/01/22 03:29:09;;;;;;;1.07;0.63;;;;;;;1.05;100.00;97431.00;5030919;27;103027;-59
2022/01/22 03:31:37;;;;;;;0.73;0.60;;;;;;;1.00;100.00;97428.06;5033594;28;102127;-58
2022/01/22 03:34:05;;;;;;;0.70;0.70;;;;;;;0.95;100.00;97431.19;5029094;28;105448;-58
2022/01/22 03:36:33;;;;;;;0.60;0.60;;;;;;;0.91;100.00;97431.66;5030220;27;101909;-58
2022/01/22 03:39:39;;;;;;;1.27;0.63;;;;;;;0.89;100.00;97428.41;5029927;28;104578;-59
2022/01/22 03:42:09;;;;;;;1.53;0.97;;;;;;;0.86;100.00;97426.09;5029516;28;105059;-58
2022/01/22 03:44:38;;;;;;;2.17;0.80;;;;;;;0.86;100.00;97420.88;5029072;28;102190;-59
2022/01/22 03:47:06;;;;;;;1.27;0.73;;;;;;;0.83;100.00;97426.44;5030157;28;104903;-59
2022/01/22 03:49:45;;;;;;;1.63;0.80;;;;;;;0.83;100.00;97426.44;5029212;28;105399;-58
2022/01/22 03:52:17;;;;;;;1.07;0.73;;;;;;;0.84;100.00;97422.84;5030015;28;101778;-59
2022/01/22 03:54:44;;;;;;;2.23;0.90;;;;;;;0.86;100.00;97411.22;5032402;28;105150;-59
2022/01/22 03:57:14;;;;;;;1.23;0.70;;;;;;;0.88;100.00;97418.94;5030030;28;102302;-59
2022/01/22 03:59:50;;;;;;;1.07;0.60;;;;;;;0.88;100.00;97416.31;5009963;28;105151;-59
2022/01/22 04:05:17;;;;;;;0.80;0.80;;;;;;;0.91;100.00;97405.47;4996216;28;102024;-58
2022/01/22 04:08:14;;;;;;;1.27;0.80;;;;;;;0.91;100.00;97408.09;5029545;28;105057;-58
2022/01/22 04:10:41;;;;;;;1.40;0.70;;;;;;;0.95;100.00;97425.13;5030001;27;102455;-59
2022/01/22 04:13:32;;;;;;;0.63;0.63;;;;;;;0.97;100.00;97418.75;5028992;28;103448;-58
2022/01/22 04:16:00;;;;;;;1.20;0.70;;;;;;;0.99;100.00;97421.19;5029645;28;105641;-58
2022/01/22 04:26:59;;;;;;;0.70;0.70;;;;;;;0.89;100.00;97420.56;5029044;28;101867;-58
2022/01/22 04:29:37;;;;;;;0.70;0.70;;;;;;;0.86;100.00;97419.09;5030831;28;102824;-59
2022/01/22 04:32:07;;;;;;;0.97;0.80;;;;;;;0.82;100.00;97420.38;5030178;28;102523;-59
2022/01/22 04:34:34;;;;;;;0.80;0.80;;;;;;;0.78;100.00;97405.19;5029317;28;101828;-59
2022/01/22 04:37:02;;;;;;;1.27;1.10;;;;;;;0.67;100.00;97416.00;5029057;28;104145;-58
2022/01/22 04:39:32;;;;;;;1.20;1.10;;;;;;;0.62;100.00;97410.44;5028285;28;105930;-59
2022/01/22 04:42:29;;;;;;;1.27;0.70;;;;;;;0.57;100.00;97405.69;5032581;28;101859;-59
2022/01/22 04:45:00;;;;;;;0.83;0.80;;;;;;;0.53;100.00;97421.88;5028300;28;105255;-59
2022/01/22 04:47:43;;;;;;;1.03;1.03;;;;;;;0.50;100.00;97417.78;5029020;28;101817;-59
2022/01/22 04:55:44;;;;;;;0.90;0.90;;;;;;;0.40;100.00;97429.38;5009030;28;101822;-58
2022/01/22 04:58:17;;;;;;;1.10;1.10;;;;;;;0.42;100.00;97430.03;5026068;28;104772;-58
2022/01/22 05:00:46;;;;;;;1.00;1.00;;;;;;;0.39;100.00;97423.31;5028211;28;104987;-59
2022/01/22 05:03:33;;;;;;;1.33;1.23;;;;;;;0.39;100.00;97438.22;5027267;28;101655;-59
2022/01/22 05:06:20;;;;;;;1.13;1.03;;;;;;;0.35;100.00;97422.03;5028470;27;102451;-59
2022/01/22 05:09:23;;;;;;;0.93;0.93;;;;;;;0.32;100.00;97422.34;5028646;28;101893;-58
2022/01/22 05:12:31;;;;;;;1.20;1.10;;;;;;;0.28;100.00;97425.47;5028589;28;104811;-58
2022/01/22 05:14:58;;;;;;;1.00;1.00;;;;;;;0.22;100.00;97426.09;5027818;28;105120;-58
2022/01/22 05:17:57;;;;;;;1.20;1.10;;;;;;;0.19;100.00;97442.94;5028868;28;101702;-59
2022/01/22 05:20:29;;;;;;;1.20;1.20;;;;;;;0.20;100.00;97438.50;5010947;28;105262;-58
2022/01/22 05:23:03;;;;;;;2.10;1.10;;;;;;;0.22;100.00;97444.41;5030557;27;105537;-59
2022/01/22 05:25:37;;;;;;;2.37;1.33;;;;;;;0.27;100.00;97434.25;5012268;28;101794;-59
2022/01/22 05:29:00;;;;;;;1.60;1.50;;;;;;;0.28;100.00;97431.50;5012991;28;105520;-58
2022/01/22 05:32:18;;;;;;;2.00;1.40;;;;;;;0.30;100.00;97423.47;5035895;28;103632;-58
2022/01/22 05:41:57;;;;;;;5.67;3.67;;;;;;;0.44;100.00;97435.94;5022929;28;101706;-58
2022/01/22 05:44:26;;;;;;;0.90;0.90;;;;;;;0.48;100.00;97426.75;5031176;28;105569;-58
2022/01/22 05:46:57;;;;;;;1.10;1.10;;;;;;;0.49;100.00;97420.53;5031540;28;105538;-58
2022/01/22 05:50:09;;;;;;;1.60;1.50;;;;;;;0.50;100.00;97435.28;5031757;28;101862;-59
2022/01/22 05:52:44;;;;;;;2.33;1.13;;;;;;;0.50;100.00;97420.38;5045792;27;105507;-59
2022/01/22 06:00:59;;;;;;;0.93;0.93;;;;;;;0.48;100.00;97427.59;4959636;28;105948;-59
2022/01/22 06:03:48;;;;;;;1.00;1.00;;;;;;;0.48;100.00;97432.00;5020947;27;103468;-59
2022/01/22 06:06:15;;;;;;;1.83;1.40;;;;;;;0.49;100.00;97436.25;5032740;27;102501;-58
2022/01/22 06:09:04;;;;;;;2.00;1.27;;;;;;;0.52;100.00;97425.47;5030865;28;105056;-59
2022/01/22 06:11:53;;;;;;;1.20;1.20;;;;;;;0.51;100.00;97431.69;5030954;28;102057;-58
2022/01/22 06:14:23;;;;;;;1.60;1.50;;;;;;;0.53;100.00;97432.34;5031265;28;105273;-58
2022/01/22 06:16:52;;;;;;;1.43;1.20;;;;;;;0.54;100.00;97440.03;5031084;28;105870;-59
2022/01/22 06:19:45;;;;;;;1.60;1.50;;;;;;;0.61;100.00;97437.59;5033729;28;103259;-58
2022/01/22 06:22:13;;;;;;;1.87;1.50;;;;;;;0.63;100.00;97444.28;5030545;28;104982;-58
2022/01/22 06:24:40;;;;;;;2.47;1.50;;;;;;;0.71;100.00;97433.00;5031166;28;101841;-58
2022/01/22 06:27:10;;;;;;;1.40;1.30;;;;;;;0.73;100.00;97436.28;5031335;28;105341;-59
2022/01/22 06:29:37;;;;;;;1.80;1.70;;;;;;;0.80;100.00;97439.84;5030508;28;105270;-58
2022/01/22 06:32:08;;;;;;;2.43;1.43;;;;;;;0.84;100.00;97443.78;5031239;28;101852;-58
2022/01/22 06:34:37;;;;;;;1.10;1.00;;;;;;;0.86;100.00;97436.59;5030469;28;104792;-59
2022/01/22 06:37:05;;;;;;;1.43;1.43;;;;;;;0.90;100.00;97456.22;5030514;28;105862;-58
2022/01/22 06:41:44;;;;;;;1.50;1.40;;;;;;;0.90;100.00;97451.00;5031143;28;101963;-59
2022/01/22 06:42:54;;;;;;;4.50;1.50;;;;;;;0.93;100.00;97453.28;5025345;27;102374;-58
2022/01/22 06:45:35;;;;;;;1.50;1.40;;;;;;;0.98;100.00;97456.19;5030126;28;102051;-59
2022/01/22 06:49:00;;;;;;;1.70;1.60;;;;;;;0.97;100.00;97459.81;5030749;28;105264;-58
2022/01/22 06:51:50;;;;;;;2.07;1.80;;;;;;;0.99;100.00;97463.09;5030447;28;103748;-58
2022/01/22 06:54:17;;;;;;;2.10;1.90;;;;;;;0.99;100.00;97471.75;5030719;28;101867;-58
2022/01/22 06:56:44;;;;;;;1.80;1.70;;;;;;;1.02;100.00;97484.53;5030485;28;105757;-59
2022/01/22 06:59:16;;;;;;;2.77;2.03;;;;;;;1.07;100.00;97469.16;5030188;28;105211;-59
2022/01/22 07:01:48;;;;;;;2.40;2.20;;;;;;;1.06;100.00;97469.31;5030679;28;101884;-59
2022/01/22 07:04:20;;;;;;;10.10;5.63;;;;;;;1.08;100.00;97477.81;5030647;28;105196;-59
2022/01/22 07:07:15;;;;;;;13.17;8.13;;;;;;;1.08;100.00;97478.63;5031283;28;102656;-59
2022/01/22 07:09:44;;;;;;;3.83;2.60;;;;;;;1.06;100.00;97448.34;5030596;28;105569;-59
2022/01/22 07:12:13;;;;;;;5.13;4.23;;;;;;;1.08;100.00;97478.63;5029646;28;105639;-59
2022/01/22 07:14:45;;;;;;;2.03;1.93;;;;;;;1.10;100.00;97465.38;5030208;28;102177;-58
2022/01/22 07:17:14;;;;;;;2.47;1.90;;;;;;;1.08;100.00;97467.31;5030383;28;104973;-58
2022/01/22 07:19:51;;;;;;;2.40;2.20;;;;;;;1.08;100.00;97467.31;5029643;28;105266;-58
2022/01/22 07:22:39;;;;;;;1.90;1.80;;;;;;;1.11;100.00;97464.41;5030348;28;101777;-59
2022/01/22 07:25:41;;;;;;;2.10;1.73;;;;;;;1.17;100.00;97461.94;5024831;27;102694;-59
2022/01/22 07:28:44;;;;;;;4.77;1.70;;;;;;;1.20;100.00;97476.50;5029641;28;105170;-59
2022/01/22 07:31:13;;;;;;;2.13;2.03;;;;;;;1.21;100.00;97470.28;5033687;28;101976;-59
2022/01/22 07:33:42;;;;;;;1.97;1.87;;;;;;;1.23;100.00;97476.16;5029549;28;105044;-59
2022/01/22 07:36:09;;;;;;;2.03;1.93;;;;;;;1.21;100.00;97478.94;5029958;28;101905;-59
2022/01/22 07:39:21;;;;;;;1.80;1.70;;;;;;;1.22;100.00;97485.00;5030097;28;104779;-59
2022/01/22 07:42:20;;;;;;;2.33;2.13;;;;;;;1.21;100.00;97478.94;5030462;28;103927;-59
2022/01/22 07:44:54;;;;;;;2.30;2.20;;;;;;;1.20;100.00;97492.22;5028673;27;102283;-59
2022/01/22 07:47:23;;;;;;;2.17;2.00;;;;;;;1.22;100.00;97516.44;5029318;28;104849;-59
2022/01/22 07:49:54;;;;;;;2.70;1.93;;;;;;;1.27;100.00;97503.66;5029338;28;103719;-59
2022/01/22 07:52:21;;;;;;;2.03;1.93;;;;;;;1.22;100.00;97505.97;5029991;28;101923;-59
2022/01/22 07:54:48;;;;;;;2.47;2.33;;;;;;;1.24;100.00;97504.81;5032694;28;105122;-59
2022/01/22 07:57:16;;;;;;;2.50;2.30;;;;;;;1.22;100.00;97509.38;5029690;28;101901;-59
2022/01/22 07:59:44;;;;;;;2.87;2.60;;;;;;;1.23;100.00;97523.31;5029805;28;105247;-58
2022/01/22 08:02:13;;;;;;;2.43;2.10;;;;;;;1.22;100.00;97516.44;5028881;28;103847;-59
2022/01/22 08:04:58;;;;;;;2.30;2.07;;;;;;;1.24;100.00;97510.06;5027978;28;101753;-59
2022/01/22 08:08:08;;;;;;;2.30;2.10;;;;;;;1.21;100.00;97507.75;4999921;28;102889;-59
2022/01/22 08:11:03;;;;;;;2.47;2.27;;;;;;;1.22;100.00;97505.97;5015548;28;102198;-59
2022/01/22 08:13:30;;;;;;;2.50;2.30;;;;;;;1.19;100.00;97514.16;5029554;28;101968;-59
2022/01/22 08:15:59;;;;;;;2.70;2.50;;;;;;;1.19;100.00;97508.91;5032108;28;104800;-59
2022/01/22 08:18:44;;;;;;;1.90;1.80;;;;;;;1.33;100.00;97508.25;5029394;28;101871;-59
2022/01/22 08:21:11;;;;;;;2.20;2.03;;;;;;;1.24;100.00;97520.53;5029456;28;105418;-59
2022/01/22 08:23:57;;;;;;;2.20;2.00;;;;;;;1.20;100.00;97529.72;5030178;28;101979;-59
2022/01/22 08:27:04;;;;;;;2.37;2.17;;;;;;;1.17;100.00;97518.75;5029437;27;101848;-59
2022/01/22 08:29:41;;;;;;;3.07;2.53;;;;;;;1.12;100.00;97518.41;5029213;28;105333;-59
2022/01/22 08:32:28;;;;;;;2.50;2.30;;;;;;;1.10;100.00;97525.63;5028324;28;105120;-59
2022/01/22 08:37:54;;;;;;;2.57;2.37;;;;;;;1.10;100.00;97528.25;5028913;28;105239;-59
2022/01/22 08:40:21;;;;;;;2.67;2.47;;;;;;;1.12;100.00;97510.56;5031742;28;105549;-59
2022/01/22 08:42:52;;;;;;;2.30;2.20;;;;;;;1.13;100.00;97502.53;5029114;28;105267;-58
2022/01/22 08:45:34;;;;;;;3.27;2.70;;;;;;;1.14;100.00;97511.19;5027906;28;105718;-59
2022/01/22 08:48:10;;;;;;;2.90;2.10;;;;;;;1.13;100.00;97536.59;4948231;28;101976;-59
2022/01/22 08:50:38;;;;;;;2.40;2.20;;;;;;;1.18;100.00;97523.00;4932144;28;105068;-59
2022/01/22 08:53:05;;;;;;;2.60;2.37;;;;;;;1.19;100.00;97533.31;4931341;28;105110;-59
2022/01/22 08:55:32;;;;;;;2.90;2.70;;;;;;;1.21;100.00;97527.91;4915394;28;103552;-59
2022/01/22 08:58:12;;;;;;;2.87;2.67;;;;;;;1.21;100.00;97539.19;4931829;28;104441;-59
2022/01/22 09:01:10;;;;;;;2.60;2.40;;;;;;;1.26;100.00;97544.75;4947312;28;104132;-59
2022/01/22 09:03:40;;;;;;;3.37;2.77;;;;;;;1.25;100.00;97537.91;4935393;28;101925;-59
2022/01/22 09:06:28;;;;;;;2.50;2.30;;;;;;;1.20;100.00;97548.03;4946740;28;103521;-59
2022/01/22 09:09:12;;;;;;;2.10;1.90;;;;;;;1.22;100.00;97559.16;4931675;28;101866;-59
2022/01/22 09:12:10;;;;;;;2.63;2.43;;;;;;;1.30;100.00;97558.34;4947472;28;105641;-59
2022/01/22 09:14:41;;;;;;;2.70;2.50;;;;;;;1.29;100.00;97561.97;4928205;28;104999;-59
2022/01/22 09:17:08;;;;;;;2.73;2.43;;;;;;;1.32;100.00;97574.75;4940123;28;102056;-59
2022/01/22 09:19:47;;;;;;;2.63;2.37;;;;;;;1.36;100.00;97570.78;4931641;28;105363;-59
2022/01/22 09:22:17;;;;;;;2.90;2.60;;;;;;;1.43;100.00;97588.31;4928016;28;105349;-59
2022/01/22 09:24:47;;;;;;;3.30;3.00;;;;;;;1.46;100.00;97587.16;4991156;27;101946;-59
2022/01/22 09:27:16;;;;;;;2.60;2.40;;;;;;;1.45;100.00;97598.66;5031095;28;105206;-59
2022/01/22 09:29:43;;;;;;;3.10;2.90;;;;;;;1.50;100.00;97594.56;5027988;28;102193;-59
2022/01/22 09:32:10;;;;;;;2.87;2.67;;;;;;;1.52;100.00;97602.25;5028197;28;106155;-59
2022/01/22 09:34:53;;;;;;;3.30;3.00;;;;;;;1.50;100.00;97602.44;5027668;28;105043;-59
2022/01/22 09:37:38;;;;;;;2.57;2.37;;;;;;;1.48;100.00;97612.22;5028141;28;102118;-59
2022/01/22 09:40:31;;;;;;;2.47;2.37;;;;;;;1.46;100.00;97608.97;5027183;28;103776;-59
2022/01/22 09:43:16;;;;;;;2.90;2.70;;;;;;;1.46;100.00;97608.97;5007734;28;105293;-59
2022/01/22 09:46:13;;;;;;;5.97;4.30;;;;;;;1.49;100.00;97613.06;5008805;27;101894;-59
2022/01/22 09:49:17;;;;;;;5.63;3.63;;;;;;;1.53;100.00;97615.19;5027903;28;105592;-59
2022/01/22 09:52:22;;;;;;;3.03;2.83;;;;;;;1.53;100.00;97614.38;4977028;28;103416;-59
2022/01/22 09:54:52;;;;;;;3.03;2.73;;;;;;;1.53;100.00;97614.38;5005259;28;103426;-59
2022/01/22 09:57:45;;;;;;;3.27;2.97;;;;;;;1.54;100.00;97614.19;5026144;28;102238;-59
2022/01/22 10:00:47;;;;;;;3.30;2.83;;;;;;;1.56;100.00;97619.28;5006551;28;101910;-59
2022/01/22 10:03:24;;;;;;;3.03;2.83;;;;;;;1.55;100.00;97612.41;5012847;28;103932;-59
2022/01/22 10:06:14;;;;;;;3.40;3.10;;;;;;;1.55;100.00;97615.84;5028925;27;103364;-59
2022/01/22 10:09:25;;;;;;;3.30;2.83;;;;;;;1.55;100.00;97617.66;5029607;27;101924;-59
2022/01/22 10:12:19;;;;;;;3.50;3.20;;;;;;;1.58;100.00;97605.03;5032055;28;103537;-59
2022/01/22 10:15:17;;;;;;;5.77;3.23;;;;;;;1.61;100.00;97614.38;5016399;28;103981;-59
2022/01/22 10:17:46;;;;;;;3.17;2.87;;;;;;;1.58;100.00;97622.56;5036213;28;101880;-59
2022/01/22 10:20:42;;;;;;;2.70;2.50;;;;;;;1.55;100.00;97612.41;5030352;28;105974;-59
2022/01/22 10:23:17;;;;;;;4.10;2.97;;;;;;;1.55;100.00;97617.66;5031163;28;102107;-59
2022/01/22 10:25:52;;;;;;;3.07;2.87;;;;;;;1.64;100.00;97608.81;5032927;27;102364;-59
2022/01/22 10:28:29;;;;;;;3.10;2.90;;;;;;;1.62;100.00;97608.13;5030404;27;105146;-58
2022/01/22 10:30:59;;;;;;;3.33;3.03;;;;;;;1.62;100.00;97623.88;5032765;28;101751;-59
2022/01/22 10:34:04;;;;;;;4.07;3.63;;;;;;;1.63;100.00;97628.13;5030795;28;104839;-59
2022/01/22 10:36:57;;;;;;;3.80;3.40;;;;;;;1.60;100.00;97625.84;5028428;28;102220;-53
2022/01/22 10:39:43;;;;;;;3.53;3.23;;;;;;;1.65;100.00;97629.59;5036271;28;101673;-55
2022/01/22 10:42:26;;;;;;;4.40;3.83;;;;;;;1.61;100.00;97622.22;5031382;28;102033;-52
2022/01/22 10:45:00;;;;;;;4.30;3.90;;;;;;;1.56;100.00;97630.59;5030825;28;102188;-54
2022/01/22 10:47:44;;;;;;;4.23;3.83;;;;;;;1.56;100.00;97627.97;5031826;28;102347;-55
2022/01/22 10:50:19;;;;;;;6.27;5.37;;;;;;;1.58;100.00;97633.06;5031648;28;103208;-54
2022/01/22 10:52:50;;;;;;;3.90;3.57;;;;;;;1.52;100.00;97628.44;5030823;28;103318;-53
2022/01/22 10:55:18;;;;;;;9.17;6.60;;;;;;;1.55;100.00;97628.13;5032241;28;101792;-54
2022/01/22 10:58:08;;;;;;;4.17;3.77;;;;;;;1.56;100.00;97627.16;5023366;28;107051;-55
2022/01/22 11:00:35;;;;;;;3.30;3.00;;;;;;;1.60;100.00;97636.31;5030152;28;101856;-52
2022/01/22 11:03:20;;;;;;;4.03;3.63;;;;;;;1.65;100.00;97628.78;5033589;28;103719;-55
2022/01/22 11:05:48;;;;;;;4.13;3.73;;;;;;;1.61;100.00;97628.31;5063912;27;103653;-52
2022/01/22 11:08:16;;;;;;;4.53;4.10;;;;;;;1.56;100.00;97645.50;5030788;28;105563;-56
2022/01/22 11:10:45;;;;;;;4.57;4.13;;;;;;;1.56;100.00;97646.31;5029654;28;105334;-56
2022/01/22 11:13:13;;;;;;;4.60;3.80;;;;;;;1.63;100.00;97642.06;5031248;28;101662;-56
2022/01/22 11:15:41;;;;;;;4.07;3.50;;;;;;;1.68;100.00;97638.94;5030603;28;105361;-54
2022/01/22 11:18:09;;;;;;;3.70;3.40;;;;;;;1.65;100.00;97642.69;5029698;28;105302;-54
2022/01/22 11:20:38;;;;;;;3.70;3.40;;;;;;;1.66;100.00;97644.38;5030277;27;102073;-55
2022/01/22 11:23:06;;;;;;;3.57;3.00;;;;;;;1.61;100.00;97648.44;5030465;28;103920;-55
2022/01/22 11:25:35;;;;;;;3.40;3.10;;;;;;;1.55;100.00;97649.09;5033312;28;104438;-55
2022/01/22 11:28:03;;;;;;;4.30;3.03;;;;;;;1.57;100.00;97660.22;5030330;28;105465;-56
2022/01/22 11:30:32;;;;;;;4.53;3.50;;;;;;;1.65;100.00;97645.31;5029722;28;105053;-55
2022/01/22 11:33:03;;;;;;;3.30;3.00;;;;;;;1.68;100.00;97652.03;5030127;28;101879;-56
2022/01/22 11:35:42;;;;;;;3.80;2.90;;;;;;;1.76;100.00;97657.31;5031754;28;102320;-56
2022/01/22 11:38:16;;;;;;;6.40;5.23;;;;;;;1.74;100.00;97660.06;5030668;28;103493;-55
2022/01/22 11:40:44;;;;;;;4.40;4.00;;;;;;;1.72;100.00;97650.72;5011685;28;101636;-54
2022/01/22 11:43:13;;;;;;;4.70;4.20;;;;;;;1.68;100.00;97659.91;5029149;28;103524;-55
2022/01/22 11:45:46;;;;;;;5.03;4.53;;;;;;;1.76;100.00;97659.91;5029703;28;102487;-56
2022/01/22 11:48:24;;;;;;;4.20;3.83;;;;;;;1.77;100.00;97659.75;5033591;28;101809;-55
2022/01/22 11:50:54;;;;;;;4.80;4.40;;;;;;;1.85;100.00;97656.28;5009448;28;105645;-54
2022/01/22 11:53:27;;;;;;;5.07;4.57;;;;;;;1.91;100.00;97663.53;5010152;28;101972;-56
2022/01/22 11:56:13;;;;;;;4.70;4.30;;;;;;;1.81;100.00;97642.69;5029986;28;103598;-56
2022/01/22 11:59:29;;;;;;;4.10;3.70;;;;;;;1.74;100.00;97635.66;5028749;28;105470;-56
2022/01/22 12:02:03;;;;;;;4.07;3.63;;;;;;;1.76;100.00;97652.84;5061532;27;101768;-54
2022/01/22 12:04:46;;;;;;;8.13;6.50;;;;;;;1.81;100.00;97647.94;5029287;28;103936;-56
2022/01/22 12:07:19;;;;;;;4.73;4.33;;;;;;;1.98;100.00;97646.13;5029212;28;105365;-56
2022/01/22 12:10:16;;;;;;;4.50;4.00;;;;;;;1.96;100.00;97648.06;5030609;28;101734;-54
2022/01/22 12:15:53;;;;;;;3.90;2.87;;;;;;;1.92;100.00;97655.47;5043323;27;101846;-53
2022/01/22 12:18:31;;;;;;;3.20;2.90;;;;;;;1.87;100.00;97652.53;5012081;28;104809;-52
2022/01/22 12:23:54;;;;;;;4.10;3.70;;;;;;;1.97;100.00;97653.16;5029455;28;101852;-52
2022/01/22 12:26:47;;;;;;;5.30;4.67;;;;;;;2.02;100.00;97650.06;5063330;27;105034;-55
2022/01/22 12:29:37;;;;;;;10.00;6.17;;;;;;;2.09;100.00;97640.53;5017366;28;105401;-54
2022/01/22 12:32:18;;;;;;;4.30;3.87;;;;;;;2.04;100.00;97641.03;5023271;27;102023;-53
2022/01/22 12:34:59;;;;;;;12.10;8.13;;;;;;;2.00;100.00;97637.09;5028201;28;105235;-54
2022/01/22 12:37:29;;;;;;;22.00;15.60;;;;;;;2.07;100.00;97645.94;5033012;27;101695;-55
2022/01/22 12:40:05;;;;;;;7.13;4.93;;;;;;;2.06;100.00;97638.22;5028297;28;105073;-54
2022/01/22 12:43:13;;;;;;;6.10;3.67;;;;;;;2.02;100.00;97636.94;5030186;27;102562;-55
2022/01/22 12:45:44;;;;;;;10.27;8.27;;;;;;;1.97;100.00;97629.56;5028259;28;102121;-61
2022/01/22 12:48:15;;;;;;;6.70;5.00;;;;;;;1.91;100.00;97618.94;5029226;28;105273;-58
2022/01/22 12:50:44;;;;;;;5.77;4.20;;;;;;;1.97;100.00;97623.50;5008139;28;105307;-59
2022/01/22 12:53:18;;;;;;;4.87;4.00;;;;;;;2.01;100.00;97624.78;5008998;28;101871;-56
2022/01/22 12:58:45;;;;;;;3.30;3.00;;;;;;;2.02;100.00;97629.88;5031634;28;105565;-55
2022/01/22 13:01:20;;;;;;;3.23;2.93;;;;;;;2.09;100.00;97624.78;5030547;28;102897;-57
2022/01/22 13:03:49;;;;;;;3.53;3.20;;;;;;;2.03;100.00;97620.22;5027945;28;105240;-58
2022/01/22 13:06:19;;;;;;;3.50;3.17;;;;;;;2.04;100.00;97619.22;5014430;28;101902;-58
2022/01/22 13:09:18;;;;;;;6.43;3.70;;;;;;;2.04;100.00;97624.47;5016685;27;102277;-58
2022/01/22 13:11:50;;;;;;;3.97;3.57;;;;;;;1.99;100.00;97624.97;5028053;28;105369;-58
2022/01/22 13:14:19;;;;;;;3.90;3.50;;;;;;;2.03;100.00;97615.78;5028284;28;101773;-58
2022/01/22 13:16:49;;;;;;;3.40;3.10;;;;;;;2.01;100.00;97617.75;5028645;28;106065;-58
2022/01/22 13:19:20;;;;;;;3.50;3.20;;;;;;;2.03;100.00;97617.59;5027835;28;105320;-56
2022/01/22 13:21:54;;;;;;;4.33;3.93;;;;;;;2.00;100.00;97607.41;5032224;28;101819;-56
2022/01/22 13:24:24;;;;;;;3.43;3.13;;;;;;;2.05;100.00;97618.22;5027867;28;104971;-58
2022/01/22 13:26:57;;;;;;;4.20;3.80;;;;;;;2.09;100.00;97622.97;5028605;28;101849;-58
2022/01/22 13:30:01;;;;;;;3.53;3.23;;;;;;;2.16;100.00;97623.13;5027830;28;105588;-58